sensor_id;sensor_type;location;lat;lon;timestamp;pressure;altitude;pressure_sealevel;temperature;humidity
68506;BME280;55509;50.680;17.942;2022-11-18T00:02:11;98478.84;;;1.08;79.80
68506;BME280;55509;50.680;17.942;2022-11-18T00:05:12;98488.38;;;1.06;80.01
68506;BME280;55509;50.680;17.942;2022-11-18T00:08:14;98497.39;;;1.05;80.03
68506;BME280;55509;50.680;17.942;2022-11-18T00:11:16;98504.16;;;1.04;80.12
68506;BME280;55509;50.680;17.942;2022-11-18T00:14:38;98498.60;;;1.05;79.97
68506;BME280;55509;50.680;17.942;2022-11-18T00:17:40;98496.15;;;1.08;80.15
68506;BME280;55509;50.680;17.942;2022-11-18T00:20:41;98487.98;;;1.11;80.08
68506;BME280;55509;50.680;17.942;2022-11-18T00:23:42;98480.89;;;1.11;79.78
68506;BME280;55509;50.680;17.942;2022-11-18T00:26:44;98486.77;;;1.11;79.98
68506;BME280;55509;50.680;17.942;2022-11-18T00:29:45;98492.66;;;1.11;80.20
68506;BME280;55509;50.680;17.942;2022-11-18T00:32:47;98492.67;;;1.11;80.22
68506;BME280;55509;50.680;17.942;2022-11-18T00:35:52;98488.16;;;1.10;80.12
68506;BME280;55509;50.680;17.942;2022-11-18T00:38:54;98483.53;;;1.06;80.30
68506;BME280;55509;50.680;17.942;2022-11-18T00:41:55;98472.81;;;1.04;80.73
68506;BME280;55509;50.680;17.942;2022-11-18T00:45:21;98467.65;;;1.00;80.28
68506;BME280;55509;50.680;17.942;2022-11-18T00:48:23;98459.86;;;1.00;80.33
68506;BME280;55509;50.680;17.942;2022-11-18T00:51:25;98462.79;;;1.02;80.36
68506;BME280;55509;50.680;17.942;2022-11-18T00:54:26;98468.31;;;1.03;80.37
68506;BME280;55509;50.680;17.942;2022-11-18T00:57:27;98468.66;;;1.02;80.42
68506;BME280;55509;50.680;17.942;2022-11-18T01:00:29;98465.41;;;1.00;80.83
68506;BME280;55509;50.680;17.942;2022-11-18T01:03:30;98455.90;;;0.98;80.81
68506;BME280;55509;50.680;17.942;2022-11-18T01:06:32;98446.76;;;0.95;80.90
68506;BME280;55509;50.680;17.942;2022-11-18T01:09:33;98442.61;;;0.94;80.84
68506;BME280;55509;50.680;17.942;2022-11-18T01:12:35;98439.13;;;0.96;81.03
68506;BME280;55509;50.680;17.942;2022-11-18T01:15:56;98428.02;;;1.00;80.78
68506;BME280;55509;50.680;17.942;2022-11-18T01:18:58;98430.23;;;1.02;81.02
68506;BME280;55509;50.680;17.942;2022-11-18T01:21:59;98442.66;;;1.07;81.03
68506;BME280;55509;50.680;17.942;2022-11-18T01:25:03;98435.21;;;1.08;80.90
68506;BME280;55509;50.680;17.942;2022-11-18T01:28:04;98431.25;;;1.05;80.88
68506;BME280;55509;50.680;17.942;2022-11-18T01:31:07;98433.00;;;1.02;80.92
68506;BME280;55509;50.680;17.942;2022-11-18T01:34:10;98429.06;;;0.99;80.89
68506;BME280;55509;50.680;17.942;2022-11-18T01:37:12;98427.34;;;0.96;80.73
68506;BME280;55509;50.680;17.942;2022-11-18T01:40:13;98428.41;;;0.93;80.83
68506;BME280;55509;50.680;17.942;2022-11-18T01:43:16;98428.28;;;0.89;80.76
68506;BME280;55509;50.680;17.942;2022-11-18T01:46:18;98430.19;;;0.88;80.67
68506;BME280;55509;50.680;17.942;2022-11-18T01:49:20;98431.23;;;0.88;80.82
68506;BME280;55509;50.680;17.942;2022-11-18T01:52:21;98431.58;;;0.88;81.05
68506;BME280;55509;50.680;17.942;2022-11-18T01:55:24;98431.05;;;0.89;81.07
68506;BME280;55509;50.680;17.942;2022-11-18T01:58:28;98428.45;;;0.89;81.10
68506;BME280;55509;50.680;17.942;2022-11-18T02:01:31;98425.38;;;0.85;80.85
68506;BME280;55509;50.680;17.942;2022-11-18T02:04:32;98425.04;;;0.84;81.29
68506;BME280;55509;50.680;17.942;2022-11-18T02:07:34;98422.29;;;0.82;81.46
68506;BME280;55509;50.680;17.942;2022-11-18T02:10:38;98417.48;;;0.78;81.29
68506;BME280;55509;50.680;17.942;2022-11-18T02:13:40;98421.63;;;0.79;80.96
68506;BME280;55509;50.680;17.942;2022-11-18T02:29:25;98434.65;;;0.93;81.16
68506;BME280;55509;50.680;17.942;2022-11-18T02:32:33;98432.77;;;0.91;80.92
68506;BME280;55509;50.680;17.942;2022-11-18T02:35:38;98434.57;;;0.84;80.63
68506;BME280;55509;50.680;17.942;2022-11-18T02:38:43;98435.14;;;0.77;80.88
68506;BME280;55509;50.680;17.942;2022-11-18T02:41:46;98430.65;;;0.75;81.14
68506;BME280;55509;50.680;17.942;2022-11-18T02:44:49;98431.33;;;0.76;80.91
68506;BME280;55509;50.680;17.942;2022-11-18T02:47:52;98434.10;;;0.77;80.88
68506;BME280;55509;50.680;17.942;2022-11-18T02:50:55;98434.80;;;0.77;81.36
68506;BME280;55509;50.680;17.942;2022-11-18T02:53:59;98433.22;;;0.79;81.33
68506;BME280;55509;50.680;17.942;2022-11-18T02:57:02;98425.92;;;0.82;81.64
68506;BME280;55509;50.680;17.942;2022-11-18T03:00:05;98424.02;;;0.83;81.37
68506;BME280;55509;50.680;17.942;2022-11-18T03:06:28;98416.45;;;0.77;81.41
68506;BME280;55509;50.680;17.942;2022-11-18T03:09:35;98415.27;;;0.73;81.48
68506;BME280;55509;50.680;17.942;2022-11-18T03:15:48;98423.95;;;0.69;81.47
68506;BME280;55509;50.680;17.942;2022-11-18T03:18:54;98422.39;;;0.72;81.58
68506;BME280;55509;50.680;17.942;2022-11-18T03:28:13;98409.89;;;0.76;81.40
68506;BME280;55509;50.680;17.942;2022-11-18T03:31:27;98407.26;;;0.79;81.69
68506;BME280;55509;50.680;17.942;2022-11-18T03:37:37;98394.95;;;0.80;81.27
68506;BME280;55509;50.680;17.942;2022-11-18T03:40:40;98394.48;;;0.77;81.13
68506;BME280;55509;50.680;17.942;2022-11-18T03:43:50;98396.94;;;0.73;81.22
68506;BME280;55509;50.680;17.942;2022-11-18T03:46:55;98395.40;;;0.70;81.54
68506;BME280;55509;50.680;17.942;2022-11-18T03:49:59;98386.77;;;0.67;81.56
68506;BME280;55509;50.680;17.942;2022-11-18T03:53:04;98386.98;;;0.62;81.46
68506;BME280;55509;50.680;17.942;2022-11-18T03:56:11;98391.83;;;0.64;81.68
68506;BME280;55509;50.680;17.942;2022-11-18T03:59:20;98391.42;;;0.69;81.76
68506;BME280;55509;50.680;17.942;2022-11-18T04:02:23;98389.16;;;0.72;81.49
68506;BME280;55509;50.680;17.942;2022-11-18T04:05:25;98387.58;;;0.74;81.15
68506;BME280;55509;50.680;17.942;2022-11-18T04:08:28;98387.38;;;0.77;81.44
68506;BME280;55509;50.680;17.942;2022-11-18T04:11:32;98380.28;;;0.77;80.93
68506;BME280;55509;50.680;17.942;2022-11-18T04:14:54;98374.77;;;0.75;81.11
68506;BME280;55509;50.680;17.942;2022-11-18T04:17:56;98365.96;;;0.72;81.10
68506;BME280;55509;50.680;17.942;2022-11-18T04:20:57;98360.80;;;0.69;81.00
68506;BME280;55509;50.680;17.942;2022-11-18T04:23:59;98354.28;;;0.63;81.07
68506;BME280;55509;50.680;17.942;2022-11-18T04:27:00;98358.30;;;0.59;81.17
68506;BME280;55509;50.680;17.942;2022-11-18T04:30:04;98361.95;;;0.57;81.28
68506;BME280;55509;50.680;17.942;2022-11-18T04:33:06;98364.60;;;0.52;81.11
68506;BME280;55509;50.680;17.942;2022-11-18T04:36:07;98364.96;;;0.48;81.13
68506;BME280;55509;50.680;17.942;2022-11-18T04:39:09;98367.20;;;0.51;81.19
68506;BME280;55509;50.680;17.942;2022-11-18T04:42:10;98370.62;;;0.56;80.93
68506;BME280;55509;50.680;17.942;2022-11-18T04:45:12;98371.29;;;0.58;80.97
68506;BME280;55509;50.680;17.942;2022-11-18T04:48:13;98373.01;;;0.59;80.60
68506;BME280;55509;50.680;17.942;2022-11-18T04:51:16;98370.96;;;0.56;80.50
68506;BME280;55509;50.680;17.942;2022-11-18T04:54:18;98374.08;;;0.54;80.68
68506;BME280;55509;50.680;17.942;2022-11-18T04:57:19;98377.93;;;0.49;80.83
68506;BME280;55509;50.680;17.942;2022-11-18T05:00:21;98382.65;;;0.44;80.68
68506;BME280;55509;50.680;17.942;2022-11-18T05:03:22;98390.81;;;0.38;80.75
68506;BME280;55509;50.680;17.942;2022-11-18T05:06:24;98394.82;;;0.35;80.72
68506;BME280;55509;50.680;17.942;2022-11-18T05:09:25;98401.40;;;0.34;80.58
68506;BME280;55509;50.680;17.942;2022-11-18T05:12:27;98405.20;;;0.35;80.57
68506;BME280;55509;50.680;17.942;2022-11-18T05:15:48;98403.78;;;0.39;81.02
68506;BME280;55509;50.680;17.942;2022-11-18T05:18:49;98403.57;;;0.43;80.97
68506;BME280;55509;50.680;17.942;2022-11-18T05:21:51;98401.48;;;0.47;80.95
68506;BME280;55509;50.680;17.942;2022-11-18T05:24:52;98401.98;;;0.48;80.85
68506;BME280;55509;50.680;17.942;2022-11-18T05:27:54;98404.06;;;0.49;80.73
68506;BME280;55509;50.680;17.942;2022-11-18T05:30:55;98401.14;;;0.46;80.41
68506;BME280;55509;50.680;17.942;2022-11-18T05:33:57;98402.73;;;0.41;80.71
68506;BME280;55509;50.680;17.942;2022-11-18T05:36:58;98399.64;;;0.37;80.73
68506;BME280;55509;50.680;17.942;2022-11-18T05:40:00;98405.38;;;0.34;80.89
68506;BME280;55509;50.680;17.942;2022-11-18T05:43:02;98410.39;;;0.34;80.89
68506;BME280;55509;50.680;17.942;2022-11-18T05:46:12;98403.31;;;0.33;80.88
68506;BME280;55509;50.680;17.942;2022-11-18T05:49:14;98401.76;;;0.33;81.17
68506;BME280;55509;50.680;17.942;2022-11-18T05:52:15;98408.12;;;0.37;80.92
68506;BME280;55509;50.680;17.942;2022-11-18T05:55:17;98407.23;;;0.41;80.58
68506;BME280;55509;50.680;17.942;2022-11-18T05:58:19;98400.83;;;0.40;80.75
68506;BME280;55509;50.680;17.942;2022-11-18T06:01:22;98401.17;;;0.41;80.61
68506;BME280;55509;50.680;17.942;2022-11-18T06:07:30;98419.14;;;0.44;80.73
68506;BME280;55509;50.680;17.942;2022-11-18T06:10:33;98423.66;;;0.40;80.88
68506;BME280;55509;50.680;17.942;2022-11-18T06:13:41;98430.77;;;0.38;80.49
68506;BME280;55509;50.680;17.942;2022-11-18T06:16:49;98432.34;;;0.35;80.64
68506;BME280;55509;50.680;17.942;2022-11-18T06:19:52;98431.98;;;0.36;80.58
68506;BME280;55509;50.680;17.942;2022-11-18T06:22:54;98437.88;;;0.35;80.79
68506;BME280;55509;50.680;17.942;2022-11-18T06:25:56;98448.08;;;0.36;81.12
68506;BME280;55509;50.680;17.942;2022-11-18T06:28:58;98455.87;;;0.35;80.84
68506;BME280;55509;50.680;17.942;2022-11-18T06:31:59;98459.86;;;0.33;80.58
68506;BME280;55509;50.680;17.942;2022-11-18T06:35:01;98470.41;;;0.34;80.68
68506;BME280;55509;50.680;17.942;2022-11-18T06:38:02;98474.86;;;0.39;80.91
68506;BME280;55509;50.680;17.942;2022-11-18T06:41:04;98481.25;;;0.41;80.57
68506;BME280;55509;50.680;17.942;2022-11-18T06:44:05;98486.95;;;0.43;80.51
68506;BME280;55509;50.680;17.942;2022-11-18T06:47:07;98490.39;;;0.46;80.47
68506;BME280;55509;50.680;17.942;2022-11-18T06:50:08;98497.98;;;0.49;80.57
68506;BME280;55509;50.680;17.942;2022-11-18T06:53:10;98496.77;;;0.47;80.03
68506;BME280;55509;50.680;17.942;2022-11-18T06:56:12;98497.15;;;0.42;79.98
68506;BME280;55509;50.680;17.942;2022-11-18T06:59:14;98503.90;;;0.42;80.07
68506;BME280;55509;50.680;17.942;2022-11-18T07:02:21;98501.82;;;0.43;80.00
68506;BME280;55509;50.680;17.942;2022-11-18T07:05:23;98506.98;;;0.47;79.84
68506;BME280;55509;50.680;17.942;2022-11-18T07:08:24;98500.58;;;0.48;79.72
68506;BME280;55509;50.680;17.942;2022-11-18T07:11:26;98498.67;;;0.47;79.70
68506;BME280;55509;50.680;17.942;2022-11-18T07:14:27;98500.23;;;0.47;79.90
68506;BME280;55509;50.680;17.942;2022-11-18T07:17:29;98496.62;;;0.45;79.74
68506;BME280;55509;50.680;17.942;2022-11-18T07:20:30;98496.96;;;0.44;80.13
68506;BME280;55509;50.680;17.942;2022-11-18T07:23:32;98502.85;;;0.44;79.78
68506;BME280;55509;50.680;17.942;2022-11-18T07:26:34;98500.80;;;0.40;79.40
68506;BME280;55509;50.680;17.942;2022-11-18T07:29:36;98503.76;;;0.37;79.51
68506;BME280;55509;50.680;17.942;2022-11-18T07:32:37;98500.97;;;0.41;79.58
68506;BME280;55509;50.680;17.942;2022-11-18T07:35:39;98497.64;;;0.47;79.58
68506;BME280;55509;50.680;17.942;2022-11-18T07:38:41;98496.41;;;0.51;79.59
68506;BME280;55509;50.680;17.942;2022-11-18T07:41:42;98500.88;;;0.56;79.69
68506;BME280;55509;50.680;17.942;2022-11-18T07:44:44;98500.18;;;0.57;79.31
68506;BME280;55509;50.680;17.942;2022-11-18T07:47:45;98508.14;;;0.55;79.13
68506;BME280;55509;50.680;17.942;2022-11-18T07:50:47;98516.27;;;0.55;79.18
68506;BME280;55509;50.680;17.942;2022-11-18T07:53:48;98514.03;;;0.55;79.36
68506;BME280;55509;50.680;17.942;2022-11-18T07:56:50;98516.11;;;0.54;79.34
68506;BME280;55509;50.680;17.942;2022-11-18T07:59:51;98519.25;;;0.50;79.41
68506;BME280;55509;50.680;17.942;2022-11-18T08:02:53;98519.45;;;0.45;79.06
68506;BME280;55509;50.680;17.942;2022-11-18T08:05:58;98525.88;;;0.40;78.80
68506;BME280;55509;50.680;17.942;2022-11-18T08:09:00;98524.34;;;0.38;78.85
68506;BME280;55509;50.680;17.942;2022-11-18T08:12:01;98520.70;;;0.39;78.61
68506;BME280;55509;50.680;17.942;2022-11-18T08:15:03;98515.84;;;0.40;78.73
68506;BME280;55509;50.680;17.942;2022-11-18T08:18:04;98511.18;;;0.39;78.86
68506;BME280;55509;50.680;17.942;2022-11-18T08:21:09;98506.54;;;0.33;78.18
68506;BME280;55509;50.680;17.942;2022-11-18T08:24:11;98504.86;;;0.26;78.32
68506;BME280;55509;50.680;17.942;2022-11-18T08:27:21;98508.52;;;0.19;78.19
68506;BME280;55509;50.680;17.942;2022-11-18T08:30:25;98507.69;;;0.14;78.63
68506;BME280;55509;50.680;17.942;2022-11-18T08:33:30;98510.81;;;0.11;78.50
68506;BME280;55509;50.680;17.942;2022-11-18T08:36:33;98516.18;;;0.07;78.43
68506;BME280;55509;50.680;17.942;2022-11-18T08:39:37;98515.51;;;0.03;78.48
68506;BME280;55509;50.680;17.942;2022-11-18T08:42:39;98508.77;;;0.04;78.63
68506;BME280;55509;50.680;17.942;2022-11-18T08:45:40;98514.45;;;0.08;78.34
68506;BME280;55509;50.680;17.942;2022-11-18T08:48:45;98521.89;;;0.09;78.03
68506;BME280;55509;50.680;17.942;2022-11-18T08:51:51;98524.98;;;0.10;77.85
68506;BME280;55509;50.680;17.942;2022-11-18T08:54:53;98529.14;;;0.10;77.91
68506;BME280;55509;50.680;17.942;2022-11-18T08:57:57;98527.77;;;0.07;77.92
68506;BME280;55509;50.680;17.942;2022-11-18T09:01:03;98533.48;;;0.06;77.96
68506;BME280;55509;50.680;17.942;2022-11-18T09:04:05;98535.72;;;0.07;78.16
68506;BME280;55509;50.680;17.942;2022-11-18T09:07:11;98542.46;;;0.07;77.39
68506;BME280;55509;50.680;17.942;2022-11-18T09:10:16;98530.86;;;0.11;77.63
68506;BME280;55509;50.680;17.942;2022-11-18T09:13:20;98533.44;;;0.16;77.37
68506;BME280;55509;50.680;17.942;2022-11-18T09:16:31;98536.16;;;0.25;77.48
68506;BME280;55509;50.680;17.942;2022-11-18T09:19:32;98541.13;;;0.34;76.89
68506;BME280;55509;50.680;17.942;2022-11-18T09:22:35;98540.08;;;0.36;76.42
68506;BME280;55509;50.680;17.942;2022-11-18T09:25:42;98541.63;;;0.35;76.24
68506;BME280;55509;50.680;17.942;2022-11-18T09:28:44;98541.65;;;0.34;76.05
68506;BME280;55509;50.680;17.942;2022-11-18T09:31:48;98543.39;;;0.32;76.15
68506;BME280;55509;50.680;17.942;2022-11-18T09:34:52;98546.67;;;0.32;75.96
68506;BME280;55509;50.680;17.942;2022-11-18T09:37:59;98550.51;;;0.26;75.42
68506;BME280;55509;50.680;17.942;2022-11-18T09:44:19;98551.22;;;0.22;74.85
68506;BME280;55509;50.680;17.942;2022-11-18T09:47:30;98553.45;;;0.26;75.33
68506;BME280;55509;50.680;17.942;2022-11-18T09:50:32;98550.67;;;0.28;75.01
68506;BME280;55509;50.680;17.942;2022-11-18T09:53:57;98552.20;;;0.33;75.08
68506;BME280;55509;50.680;17.942;2022-11-18T09:57:28;98552.71;;;0.35;74.90
68506;BME280;55509;50.680;17.942;2022-11-18T10:00:39;98550.14;;;0.32;74.55
68506;BME280;55509;50.680;17.942;2022-11-18T10:03:57;98550.98;;;0.34;74.83
68506;BME280;55509;50.680;17.942;2022-11-18T10:06:58;98545.64;;;0.34;74.27
68506;BME280;55509;50.680;17.942;2022-11-18T10:10:04;98542.69;;;0.34;73.78
68506;BME280;55509;50.680;17.942;2022-11-18T10:13:26;98559.44;;;0.38;73.75
68506;BME280;55509;50.680;17.942;2022-11-18T10:16:40;98563.52;;;0.52;73.66
68506;BME280;55509;50.680;17.942;2022-11-18T10:19:52;98567.74;;;0.69;73.12
68506;BME280;55509;50.680;17.942;2022-11-18T10:22:57;98563.51;;;0.83;72.89
68506;BME280;55509;50.680;17.942;2022-11-18T10:26:03;98567.30;;;0.86;72.23
68506;BME280;55509;50.680;17.942;2022-11-18T10:29:04;98582.38;;;0.83;71.71
68506;BME280;55509;50.680;17.942;2022-11-18T10:32:12;98583.98;;;0.76;71.35
68506;BME280;55509;50.680;17.942;2022-11-18T10:35:25;98585.23;;;0.66;70.85
68506;BME280;55509;50.680;17.942;2022-11-18T10:38:27;98580.27;;;0.57;70.96
68506;BME280;55509;50.680;17.942;2022-11-18T10:41:28;98583.92;;;0.55;71.42
68506;BME280;55509;50.680;17.942;2022-11-18T10:44:39;98581.13;;;0.59;71.41
68506;BME280;55509;50.680;17.942;2022-11-18T10:47:41;98582.64;;;0.66;71.34
68506;BME280;55509;50.680;17.942;2022-11-18T10:50:47;98587.44;;;0.74;70.83
68506;BME280;55509;50.680;17.942;2022-11-18T10:53:50;98582.17;;;0.89;71.05
68506;BME280;55509;50.680;17.942;2022-11-18T10:56:55;98578.80;;;1.01;69.97
68506;BME280;55509;50.680;17.942;2022-11-18T10:59:58;98577.91;;;1.04;69.68
68506;BME280;55509;50.680;17.942;2022-11-18T11:02:59;98574.10;;;1.02;69.29
68506;BME280;55509;50.680;17.942;2022-11-18T11:09:24;98587.70;;;0.90;68.70
68506;BME280;55509;50.680;17.942;2022-11-18T11:12:27;98589.14;;;0.79;68.33
68506;BME280;55509;50.680;17.942;2022-11-18T11:15:40;98585.40;;;0.68;68.58
68506;BME280;55509;50.680;17.942;2022-11-18T11:18:51;98588.55;;;0.63;68.27
68506;BME280;55509;50.680;17.942;2022-11-18T11:21:54;98591.69;;;0.58;68.17
68506;BME280;55509;50.680;17.942;2022-11-18T11:24:57;98595.20;;;0.49;67.81
68506;BME280;55509;50.680;17.942;2022-11-18T11:28:08;98596.42;;;0.47;67.74
68506;BME280;55509;50.680;17.942;2022-11-18T11:31:21;98595.52;;;0.50;67.62
68506;BME280;55509;50.680;17.942;2022-11-18T11:47:02;98587.86;;;0.64;66.33
68506;BME280;55509;50.680;17.942;2022-11-18T11:50:32;98593.58;;;0.59;66.11
68506;BME280;55509;50.680;17.942;2022-11-18T11:57:22;98587.61;;;0.41;65.55
68506;BME280;55509;50.680;17.942;2022-11-18T12:00:19;98588.35;;;0.32;65.90
68506;BME280;55509;50.680;17.942;2022-11-18T12:06:22;98584.74;;;0.26;66.73
68506;BME280;55509;50.680;17.942;2022-11-18T12:12:33;98588.56;;;0.24;66.46
68506;BME280;55509;50.680;17.942;2022-11-18T12:22:08;98591.52;;;0.16;66.64
68506;BME280;55509;50.680;17.942;2022-11-18T12:25:42;98592.56;;;0.17;66.33
68506;BME280;55509;50.680;17.942;2022-11-18T12:28:35;98588.06;;;0.16;65.75
68506;BME280;55509;50.680;17.942;2022-11-18T12:31:37;98589.08;;;0.24;66.27
68506;BME280;55509;50.680;17.942;2022-11-18T12:34:39;98589.73;;;0.32;65.96
68506;BME280;55509;50.680;17.942;2022-11-18T12:38:00;98590.40;;;0.37;65.65
68506;BME280;55509;50.680;17.942;2022-11-18T12:41:02;98592.98;;;0.38;65.83
68506;BME280;55509;50.680;17.942;2022-11-18T12:44:27;98598.67;;;0.44;65.70
68506;BME280;55509;50.680;17.942;2022-11-18T12:50:48;98599.88;;;0.46;65.85
68506;BME280;55509;50.680;17.942;2022-11-18T12:53:51;98597.30;;;0.41;65.34
68506;BME280;55509;50.680;17.942;2022-11-18T12:56:53;98599.73;;;0.38;65.78
68506;BME280;55509;50.680;17.942;2022-11-18T12:59:55;98600.80;;;0.33;65.70
68506;BME280;55509;50.680;17.942;2022-11-18T13:02:58;98595.27;;;0.31;66.04
68506;BME280;55509;50.680;17.942;2022-11-18T13:06:01;98599.59;;;0.33;66.15
68506;BME280;55509;50.680;17.942;2022-11-18T13:09:15;98601.14;;;0.33;65.69
68506;BME280;55509;50.680;17.942;2022-11-18T13:12:17;98595.64;;;0.25;65.84
68506;BME280;55509;50.680;17.942;2022-11-18T13:15:19;98602.23;;;0.20;66.35
68506;BME280;55509;50.680;17.942;2022-11-18T13:18:45;98611.58;;;0.14;66.40
68506;BME280;55509;50.680;17.942;2022-11-18T13:21:52;98611.61;;;0.08;66.75
68506;BME280;55509;50.680;17.942;2022-11-18T13:25:22;98620.77;;;0.06;66.97
68506;BME280;55509;50.680;17.942;2022-11-18T13:28:31;98624.58;;;0.05;66.70
68506;BME280;55509;50.680;17.942;2022-11-18T13:31:45;98625.97;;;0.03;66.87
68506;BME280;55509;50.680;17.942;2022-11-18T13:34:56;98627.87;;;0.05;66.70
68506;BME280;55509;50.680;17.942;2022-11-18T13:37:59;98634.61;;;0.05;66.90
68506;BME280;55509;50.680;17.942;2022-11-18T13:41:01;98643.77;;;0.01;66.73
68506;BME280;55509;50.680;17.942;2022-11-18T13:44:24;98654.49;;;-0.09;66.80
68506;BME280;55509;50.680;17.942;2022-11-18T13:47:37;98659.19;;;-0.14;66.99
68506;BME280;55509;50.680;17.942;2022-11-18T13:50:42;98656.23;;;-0.12;67.24
68506;BME280;55509;50.680;17.942;2022-11-18T13:53:47;98662.98;;;-0.12;67.12
68506;BME280;55509;50.680;17.942;2022-11-18T13:56:49;98663.50;;;-0.14;67.39
68506;BME280;55509;50.680;17.942;2022-11-18T13:59:50;98664.20;;;-0.20;67.53
68506;BME280;55509;50.680;17.942;2022-11-18T14:02:58;98667.14;;;-0.25;67.84
68506;BME280;55509;50.680;17.942;2022-11-18T14:06:01;98672.33;;;-0.33;68.05
68506;BME280;55509;50.680;17.942;2022-11-18T14:12:24;98685.63;;;-0.49;68.50
68506;BME280;55509;50.680;17.942;2022-11-18T14:15:35;98689.25;;;-0.57;68.64
68506;BME280;55509;50.680;17.942;2022-11-18T14:18:37;98691.65;;;-0.65;68.94
68506;BME280;55509;50.680;17.942;2022-11-18T14:21:48;98697.00;;;-0.69;69.37
68506;BME280;55509;50.680;17.942;2022-11-18T14:24:57;98700.77;;;-0.79;69.48
68506;BME280;55509;50.680;17.942;2022-11-18T14:28:18;98703.71;;;-0.85;69.68
68506;BME280;55509;50.680;17.942;2022-11-18T14:37:23;98705.09;;;-0.89;70.36
68506;BME280;55509;50.680;17.942;2022-11-18T14:40:28;98711.63;;;-0.94;70.07
68506;BME280;55509;50.680;17.942;2022-11-18T14:43:29;98710.58;;;-0.98;70.48
68506;BME280;55509;50.680;17.942;2022-11-18T14:46:33;98711.77;;;-1.02;70.23
68506;BME280;55509;50.680;17.942;2022-11-18T14:49:37;98719.00;;;-1.07;70.26
68506;BME280;55509;50.680;17.942;2022-11-18T14:52:38;98724.34;;;-1.11;70.47
68506;BME280;55509;50.680;17.942;2022-11-18T14:55:40;98732.25;;;-1.16;70.30
68506;BME280;55509;50.680;17.942;2022-11-18T14:58:45;98732.95;;;-1.16;70.57
68506;BME280;55509;50.680;17.942;2022-11-18T15:01:46;98739.16;;;-1.15;70.66
68506;BME280;55509;50.680;17.942;2022-11-18T15:05:03;98732.09;;;-1.16;70.63
68506;BME280;55509;50.680;17.942;2022-11-18T15:08:05;98728.80;;;-1.18;70.40
68506;BME280;55509;50.680;17.942;2022-11-18T15:11:07;98732.23;;;-1.24;70.65
68506;BME280;55509;50.680;17.942;2022-11-18T15:14:09;98734.45;;;-1.29;70.72
68506;BME280;55509;50.680;17.942;2022-11-18T15:17:19;98738.73;;;-1.34;70.65
68506;BME280;55509;50.680;17.942;2022-11-18T15:20:28;98739.73;;;-1.39;70.74
68506;BME280;55509;50.680;17.942;2022-11-18T15:23:32;98741.44;;;-1.46;70.92
68506;BME280;55509;50.680;17.942;2022-11-18T15:26:35;98740.05;;;-1.49;70.66
68506;BME280;55509;50.680;17.942;2022-11-18T15:29:38;98743.51;;;-1.46;70.73
68506;BME280;55509;50.680;17.942;2022-11-18T15:32:40;98749.55;;;-1.43;70.28
68506;BME280;55509;50.680;17.942;2022-11-18T15:35:42;98751.97;;;-1.44;70.04
68506;BME280;55509;50.680;17.942;2022-11-18T15:38:43;98759.54;;;-1.48;69.86
68506;BME280;55509;50.680;17.942;2022-11-18T15:41:45;98761.58;;;-1.51;70.00
68506;BME280;55509;50.680;17.942;2022-11-18T15:44:46;98765.71;;;-1.54;70.06
68506;BME280;55509;50.680;17.942;2022-11-18T15:47:50;98773.42;;;-1.59;69.80
68506;BME280;55509;50.680;17.942;2022-11-18T15:50:51;98773.92;;;-1.63;69.62
68506;BME280;55509;50.680;17.942;2022-11-18T15:53:53;98778.36;;;-1.69;69.58
68506;BME280;55509;50.680;17.942;2022-11-18T15:56:55;98778.86;;;-1.72;69.67
68506;BME280;55509;50.680;17.942;2022-11-18T15:59:57;98781.24;;;-1.75;68.96
68506;BME280;55509;50.680;17.942;2022-11-18T16:02:58;98786.40;;;-1.79;68.91
68506;BME280;55509;50.680;17.942;2022-11-18T16:05:59;98791.22;;;-1.80;68.90
68506;BME280;55509;50.680;17.942;2022-11-18T16:09:01;98793.10;;;-1.82;69.17
68506;BME280;55509;50.680;17.942;2022-11-18T16:12:05;98791.04;;;-1.83;68.84
68506;BME280;55509;50.680;17.942;2022-11-18T16:15:28;98791.52;;;-1.86;68.51
68506;BME280;55509;50.680;17.942;2022-11-18T16:18:48;98797.23;;;-1.85;68.28
68506;BME280;55509;50.680;17.942;2022-11-18T16:21:54;98799.13;;;-1.82;67.70
68506;BME280;55509;50.680;17.942;2022-11-18T16:24:56;98801.02;;;-1.84;67.95
68506;BME280;55509;50.680;17.942;2022-11-18T16:27:58;98807.41;;;-1.81;68.03
68506;BME280;55509;50.680;17.942;2022-11-18T16:31:00;98809.66;;;-1.80;67.90
68506;BME280;55509;50.680;17.942;2022-11-18T16:34:24;98815.30;;;-1.85;67.91
68506;BME280;55509;50.680;17.942;2022-11-18T16:37:30;98817.51;;;-1.91;68.02
68506;BME280;55509;50.680;17.942;2022-11-18T16:40:31;98824.33;;;-1.99;68.13
68506;BME280;55509;50.680;17.942;2022-11-18T16:43:33;98829.05;;;-2.10;68.41
68506;BME280;55509;50.680;17.942;2022-11-18T16:46:36;98832.41;;;-2.20;68.56
68506;BME280;55509;50.680;17.942;2022-11-18T16:49:37;98831.10;;;-2.30;68.61
68506;BME280;55509;50.680;17.942;2022-11-18T16:52:42;98839.96;;;-2.39;68.96
68506;BME280;55509;50.680;17.942;2022-11-18T16:55:43;98842.63;;;-2.48;69.13
68506;BME280;55509;50.680;17.942;2022-11-18T16:58:45;98845.66;;;-2.55;69.41
68506;BME280;55509;50.680;17.942;2022-11-18T17:01:47;98845.73;;;-2.62;69.53
68506;BME280;55509;50.680;17.942;2022-11-18T17:04:48;98841.53;;;-2.70;69.71
68506;BME280;55509;50.680;17.942;2022-11-18T17:07:50;98842.84;;;-2.76;69.91
68506;BME280;55509;50.680;17.942;2022-11-18T17:10:51;98846.73;;;-2.81;70.00
68506;BME280;55509;50.680;17.942;2022-11-18T17:13:53;98847.04;;;-2.84;70.25
68506;BME280;55509;50.680;17.942;2022-11-18T17:16:54;98843.73;;;-2.86;70.52
68506;BME280;55509;50.680;17.942;2022-11-18T17:19:56;98846.63;;;-2.88;70.62
68506;BME280;55509;50.680;17.942;2022-11-18T17:22:58;98847.48;;;-2.89;70.63
68506;BME280;55509;50.680;17.942;2022-11-18T17:25:59;98854.86;;;-2.91;70.60
68506;BME280;55509;50.680;17.942;2022-11-18T17:29:03;98854.14;;;-2.94;70.78
68506;BME280;55509;50.680;17.942;2022-11-18T17:32:05;98862.38;;;-2.96;70.98
68506;BME280;55509;50.680;17.942;2022-11-18T17:35:07;98868.32;;;-3.01;71.08